createdAt,value
2018-09-08T00:00:58.071Z,1011.83
2018-09-08T00:01:58.081Z,1011.84
2018-09-08T00:02:58.082Z,1011.84
2018-09-08T00:03:58.078Z,1011.85
2018-09-08T00:04:58.090Z,1011.84
2018-09-08T00:05:58.728Z,1011.86
2018-09-08T00:06:58.108Z,1011.89
2018-09-08T00:07:58.100Z,1011.87
2018-09-08T00:08:58.130Z,1011.88
2018-09-08T00:09:58.087Z,1011.93
2018-09-08T00:10:58.088Z,1011.93
2018-09-08T00:11:58.095Z,1011.95
2018-09-08T00:12:58.093Z,1011.98
2018-09-08T00:13:58.112Z,1011.98
2018-09-08T00:14:58.116Z,1012.00
2018-09-08T00:15:58.118Z,1011.98
2018-09-08T00:16:58.106Z,1012.00
2018-09-08T00:17:58.104Z,1011.97
2018-09-08T00:18:58.108Z,1011.98
2018-09-08T00:19:58.115Z,1012.03
2018-09-08T00:20:58.132Z,1011.98
2018-09-08T00:21:58.131Z,1012.03
2018-09-08T00:22:58.129Z,1011.95
2018-09-08T00:23:58.223Z,1012.00
2018-09-08T00:24:58.153Z,1011.95
2018-09-08T00:25:58.118Z,1011.95
2018-09-08T00:26:58.150Z,1011.96
2018-09-08T00:27:58.137Z,1011.94
2018-09-08T00:28:58.122Z,1011.94
2018-09-08T00:29:58.129Z,1011.98
2018-09-08T00:30:58.161Z,1011.97
2018-09-08T00:31:58.139Z,1011.99
2018-09-08T00:32:58.191Z,1012.01
2018-09-08T00:33:58.141Z,1012.00
2018-09-08T00:34:58.196Z,1011.99
2018-09-08T00:35:58.149Z,1011.99
2018-09-08T00:36:58.738Z,1012.03
2018-09-08T00:37:58.157Z,1012.06
2018-09-08T00:38:58.168Z,1012.08
2018-09-08T00:39:58.173Z,1012.05
2018-09-08T00:40:58.162Z,1012.10
2018-09-08T00:41:58.151Z,1012.14
2018-09-08T00:42:58.171Z,1012.15
2018-09-08T00:43:58.180Z,1012.10
2018-09-08T00:44:58.152Z,1012.11
2018-09-08T00:45:58.239Z,1012.12
2018-09-08T00:46:58.181Z,1012.14
2018-09-08T00:47:58.166Z,1012.16
2018-09-08T00:48:58.158Z,1012.12
2018-09-08T00:49:59.795Z,1012.14
2018-09-08T00:50:58.213Z,1012.12
2018-09-08T00:51:58.173Z,1012.15
2018-09-08T00:52:58.194Z,1012.16
2018-09-08T00:53:58.198Z,1012.19
2018-09-08T00:54:58.169Z,1012.15
2018-09-08T00:55:58.202Z,1012.18
2018-09-08T00:56:58.182Z,1012.16
2018-09-08T00:57:58.182Z,1012.22
2018-09-08T00:58:58.202Z,1012.23
2018-09-08T00:59:58.189Z,1012.26
2018-09-08T01:00:58.191Z,1012.28
2018-09-08T01:01:58.288Z,1012.24
2018-09-08T01:02:58.204Z,1012.23
2018-09-08T01:03:58.203Z,1012.28
2018-09-08T01:04:58.193Z,1012.22
2018-09-08T01:05:58.251Z,1012.26
2018-09-08T01:06:58.231Z,1012.23
2018-09-08T01:07:58.224Z,1012.19
2018-09-08T01:08:58.216Z,1012.15
2018-09-08T01:09:58.210Z,1012.19
2018-09-08T01:10:58.197Z,1012.14
2018-09-08T01:11:58.217Z,1012.19
2018-09-08T01:12:58.208Z,1012.17
2018-09-08T01:13:58.206Z,1012.17
2018-09-08T01:14:58.203Z,1012.10
2018-09-08T01:15:58.212Z,1012.12
2018-09-08T01:16:58.218Z,1012.11
2018-09-08T01:17:58.203Z,1012.13
2018-09-08T01:18:58.230Z,1012.12
2018-09-08T01:19:58.222Z,1012.08
2018-09-08T01:20:58.250Z,1012.09
2018-09-08T01:21:58.231Z,1012.12
2018-09-08T01:22:58.228Z,1012.14
2018-09-08T01:23:58.239Z,1012.13
2018-09-08T01:24:58.233Z,1012.16
2018-09-08T01:25:58.267Z,1012.16
2018-09-08T01:26:58.264Z,1012.14
2018-09-08T01:27:58.313Z,1012.16
2018-09-08T01:28:58.264Z,1012.14
2018-09-08T01:29:58.238Z,1012.15
2018-09-08T01:30:59.255Z,1012.14
2018-09-08T01:31:58.255Z,1012.12
2018-09-08T01:32:58.261Z,1012.14
2018-09-08T01:33:58.249Z,1012.17
2018-09-08T01:34:58.251Z,1012.19
2018-09-08T01:35:58.253Z,1012.20
2018-09-08T01:36:58.253Z,1012.19
2018-09-08T01:37:58.277Z,1012.16
2018-09-08T01:38:58.257Z,1012.17
2018-09-08T01:39:58.273Z,1012.14
2018-09-08T01:40:58.269Z,1012.17
2018-09-08T01:41:58.264Z,1012.14
2018-09-08T01:42:58.298Z,1012.14
2018-09-08T01:43:58.395Z,1012.13
2018-09-08T01:44:58.267Z,1012.13
2018-09-08T01:45:58.267Z,1012.16
2018-09-08T01:46:58.277Z,1012.17
2018-09-08T01:47:58.277Z,1012.18
2018-09-08T01:48:58.269Z,1012.19
2018-09-08T01:49:58.293Z,1012.22
2018-09-08T01:50:58.266Z,1012.26
2018-09-08T01:51:58.274Z,1012.24
2018-09-08T01:52:58.309Z,1012.28
2018-09-08T01:53:58.279Z,1012.26
2018-09-08T01:54:58.286Z,1012.25
2018-09-08T01:55:58.277Z,1012.25
2018-09-08T01:56:58.288Z,1012.23
2018-09-08T01:57:58.336Z,1012.20
2018-09-08T01:58:58.294Z,1012.21
2018-09-08T01:59:58.301Z,1012.23
2018-09-08T02:00:58.302Z,1012.23
2018-09-08T02:01:58.402Z,1012.22
2018-09-08T02:02:58.314Z,1012.27
2018-09-08T02:03:58.308Z,1012.22
2018-09-08T02:04:58.321Z,1012.30
2018-09-08T02:05:58.357Z,1012.32
2018-09-08T02:06:58.350Z,1012.28
2018-09-08T02:07:58.339Z,1012.31
2018-09-08T02:08:58.314Z,1012.32
2018-09-08T02:09:58.309Z,1012.33
2018-09-08T02:10:58.314Z,1012.31
2018-09-08T02:11:58.507Z,1012.32
2018-09-08T02:12:58.327Z,1012.29
2018-09-08T02:13:58.308Z,1012.28
2018-09-08T02:14:58.384Z,1012.26
2018-09-08T02:15:58.334Z,1012.27
2018-09-08T02:16:58.332Z,1012.29
2018-09-08T02:17:58.359Z,1012.26
2018-09-08T02:18:58.341Z,1012.22
2018-09-08T02:19:58.330Z,1012.21
2018-09-08T02:20:58.341Z,1012.21
2018-09-08T02:21:58.342Z,1012.18
2018-09-08T02:22:58.348Z,1012.17
2018-09-08T02:23:58.373Z,1012.16
2018-09-08T02:24:58.348Z,1012.14
2018-09-08T02:25:58.363Z,1012.19
2018-09-08T02:26:58.383Z,1012.20
2018-09-08T02:27:58.447Z,1012.19
2018-09-08T02:28:58.408Z,1012.21
2018-09-08T02:29:58.389Z,1012.21
2018-09-08T02:30:58.403Z,1012.24
2018-09-08T02:31:58.344Z,1012.18
2018-09-08T02:32:58.336Z,1012.22
2018-09-08T02:33:58.359Z,1012.21
2018-09-08T02:34:58.428Z,1012.20
2018-09-08T02:35:58.370Z,1012.18
2018-09-08T02:36:59.380Z,1012.27
2018-09-08T02:37:58.412Z,1012.23
2018-09-08T02:38:58.392Z,1012.21
2018-09-08T02:39:58.384Z,1012.23
2018-09-08T02:40:58.406Z,1012.19
2018-09-08T02:41:58.376Z,1012.17
2018-09-08T02:42:58.360Z,1012.24
2018-09-08T02:43:58.383Z,1012.21
2018-09-08T02:44:58.382Z,1012.24
2018-09-08T02:45:58.401Z,1012.26
2018-09-08T02:46:58.395Z,1012.22
2018-09-08T02:47:58.386Z,1012.26
2018-09-08T02:48:58.415Z,1012.24
2018-09-08T02:49:58.414Z,1012.27
2018-09-08T02:50:58.390Z,1012.20
2018-09-08T02:51:58.368Z,1012.24
2018-09-08T02:52:58.441Z,1012.19
2018-09-08T02:53:58.417Z,1012.19
2018-09-08T02:54:58.414Z,1012.18
2018-09-08T02:55:58.417Z,1012.16
2018-09-08T02:56:58.418Z,1012.19
2018-09-08T02:57:58.393Z,1012.18
2018-09-08T02:58:58.434Z,1012.17
2018-09-08T02:59:58.435Z,1012.14
2018-09-08T03:00:58.459Z,1012.16
2018-09-08T03:01:58.402Z,1012.20
2018-09-08T03:02:58.413Z,1012.18
2018-09-08T03:03:58.420Z,1012.21
2018-09-08T03:04:58.396Z,1012.20
2018-09-08T03:05:58.384Z,1012.22
2018-09-08T03:06:58.392Z,1012.25
2018-09-08T03:07:58.398Z,1012.23
2018-09-08T03:08:58.408Z,1012.22
2018-09-08T03:09:58.411Z,1012.24
2018-09-08T03:10:58.422Z,1012.23
2018-09-08T03:11:58.416Z,1012.25
2018-09-08T03:12:58.404Z,1012.28
2018-09-08T03:13:58.401Z,1012.24
2018-09-08T03:14:58.414Z,1012.24
2018-09-08T03:15:58.412Z,1012.29
2018-09-08T03:16:58.438Z,1012.29
2018-09-08T03:17:58.435Z,1012.30
2018-09-08T03:18:58.462Z,1012.27
2018-09-08T03:19:58.467Z,1012.32
2018-09-08T03:20:58.421Z,1012.29
2018-09-08T03:21:58.415Z,1012.30
2018-09-08T03:22:58.430Z,1012.30
2018-09-08T03:23:58.443Z,1012.34
2018-09-08T03:24:58.450Z,1012.35
2018-09-08T03:25:58.424Z,1012.39
2018-09-08T03:26:58.441Z,1012.45
2018-09-08T03:27:58.428Z,1012.48
2018-09-08T03:28:58.444Z,1012.50
2018-09-08T03:29:58.444Z,1012.54
2018-09-08T03:30:58.430Z,1012.56
2018-09-08T03:31:58.459Z,1012.59
2018-09-08T03:32:59.290Z,1012.57
2018-09-08T03:33:58.490Z,1012.60
2018-09-08T03:34:58.460Z,1012.58
2018-09-08T03:35:58.449Z,1012.60
2018-09-08T03:36:58.486Z,1012.58
2018-09-08T03:37:58.497Z,1012.64
2018-09-08T03:38:58.453Z,1012.65
2018-09-08T03:39:59.291Z,1012.62
2018-09-08T03:40:58.460Z,1012.71
2018-09-08T03:41:58.481Z,1012.69
2018-09-08T03:42:58.466Z,1012.70
2018-09-08T03:43:58.460Z,1012.68
2018-09-08T03:44:58.461Z,1012.74
2018-09-08T03:45:58.463Z,1012.74
2018-09-08T03:46:58.471Z,1012.73
2018-09-08T03:47:58.457Z,1012.74
2018-09-08T03:48:58.459Z,1012.74
2018-09-08T03:49:58.476Z,1012.78
2018-09-08T03:50:58.481Z,1012.79
2018-09-08T03:51:58.475Z,1012.75
2018-09-08T03:52:58.584Z,1012.81
2018-09-08T03:53:58.484Z,1012.79
2018-09-08T03:54:58.485Z,1012.80
2018-09-08T03:55:58.476Z,1012.78
2018-09-08T03:56:58.500Z,1012.77
2018-09-08T03:57:58.498Z,1012.78
2018-09-08T03:58:58.572Z,1012.79
2018-09-08T03:59:58.479Z,1012.77
2018-09-08T04:00:58.509Z,1012.81
2018-09-08T04:01:58.481Z,1012.78
2018-09-08T04:02:58.485Z,1012.77
2018-09-08T04:03:58.569Z,1012.79
2018-09-08T04:04:58.486Z,1012.83
2018-09-08T04:05:58.638Z,1012.83
2018-09-08T04:06:58.506Z,1012.83
2018-09-08T04:07:58.492Z,1012.85
2018-09-08T04:08:58.498Z,1012.83
2018-09-08T04:09:58.539Z,1012.83
2018-09-08T04:10:58.518Z,1012.82
2018-09-08T04:11:58.526Z,1012.84
2018-09-08T04:12:58.526Z,1012.80
2018-09-08T04:13:58.529Z,1012.82
2018-09-08T04:14:58.517Z,1012.83
2018-09-08T04:15:58.525Z,1012.82
2018-09-08T04:16:58.502Z,1012.80
2018-09-08T04:17:58.562Z,1012.84
2018-09-08T04:18:58.516Z,1012.82
2018-09-08T04:19:58.558Z,1012.86
2018-09-08T04:20:58.517Z,1012.87
2018-09-08T04:21:58.513Z,1012.86
2018-09-08T04:22:58.567Z,1012.86
2018-09-08T04:23:58.677Z,1012.82
2018-09-08T04:24:58.515Z,1012.84
2018-09-08T04:25:58.597Z,1012.85
2018-09-08T04:26:58.546Z,1012.86
2018-09-08T04:27:58.543Z,1012.82
2018-09-08T04:28:58.525Z,1012.87
2018-09-08T04:29:58.532Z,1012.85
2018-09-08T04:30:58.536Z,1012.85
2018-09-08T04:31:58.530Z,1012.85
2018-09-08T04:32:58.526Z,1012.87
2018-09-08T04:33:58.519Z,1012.82
2018-09-08T04:34:58.534Z,1012.83
2018-09-08T04:35:58.539Z,1012.82
2018-09-08T04:36:58.543Z,1012.85
2018-09-08T04:37:58.531Z,1012.84
2018-09-08T04:38:58.619Z,1012.88
2018-09-08T04:39:58.533Z,1012.86
2018-09-08T04:40:58.632Z,1012.89
2018-09-08T04:41:58.552Z,1012.92
2018-09-08T04:42:58.565Z,1012.91
2018-09-08T04:43:58.568Z,1012.92
2018-09-08T04:44:58.579Z,1012.93
2018-09-08T04:45:58.548Z,1012.95
2018-09-08T04:46:58.579Z,1012.91
2018-09-08T04:47:58.547Z,1012.95
2018-09-08T04:48:58.550Z,1012.95
2018-09-08T04:49:58.556Z,1012.91
2018-09-08T04:50:58.547Z,1012.96
2018-09-08T04:51:58.557Z,1012.97
2018-09-08T04:52:58.550Z,1013.02
2018-09-08T04:53:58.559Z,1012.99
2018-09-08T04:54:58.571Z,1013.03
2018-09-08T04:55:58.556Z,1013.02
2018-09-08T04:56:58.634Z,1013.06
2018-09-08T04:57:58.588Z,1013.06
2018-09-08T04:58:58.584Z,1013.05
2018-09-08T04:59:59.313Z,1013.02
2018-09-08T05:00:58.579Z,1013.05
2018-09-08T05:01:58.571Z,1013.05
2018-09-08T05:02:58.611Z,1013.11
2018-09-08T05:03:58.609Z,1013.09
2018-09-08T05:04:58.633Z,1013.09
2018-09-08T05:05:58.619Z,1013.09
2018-09-08T05:06:58.602Z,1013.09
2018-09-08T05:07:58.600Z,1013.09
2018-09-08T05:08:58.617Z,1013.06
2018-09-08T05:09:58.644Z,1013.11
2018-09-08T05:10:58.607Z,1013.13
2018-09-08T05:11:58.653Z,1013.11
2018-09-08T05:12:58.616Z,1013.16
2018-09-08T05:13:58.595Z,1013.16
2018-09-08T05:14:58.578Z,1013.16
2018-09-08T05:15:58.583Z,1013.17
2018-09-08T05:16:58.589Z,1013.17
2018-09-08T05:17:58.591Z,1013.18
2018-09-08T05:18:58.628Z,1013.19
2018-09-08T05:19:58.617Z,1013.14
2018-09-08T05:20:59.318Z,1013.13
2018-09-08T05:21:58.605Z,1013.18
2018-09-08T05:22:58.602Z,1013.17
2018-09-08T05:23:58.627Z,1013.21
2018-09-08T05:24:58.624Z,1013.19
2018-09-08T05:25:58.598Z,1013.16
2018-09-08T05:26:58.611Z,1013.21
2018-09-08T05:27:58.619Z,1013.19
2018-09-08T05:28:58.613Z,1013.22
2018-09-08T05:29:58.605Z,1013.20
2018-09-08T05:30:58.621Z,1013.25
2018-09-08T05:31:58.610Z,1013.26
2018-09-08T05:32:58.617Z,1013.26
2018-09-08T05:33:58.638Z,1013.29
2018-09-08T05:34:58.662Z,1013.32
2018-09-08T05:35:58.616Z,1013.34
2018-09-08T05:36:58.646Z,1013.33
2018-09-08T05:37:58.623Z,1013.34
2018-09-08T05:38:58.623Z,1013.35
2018-09-08T05:39:58.705Z,1013.36
2018-09-08T05:40:58.637Z,1013.42
2018-09-08T05:41:58.644Z,1013.40
2018-09-08T05:42:58.687Z,1013.42
2018-09-08T05:43:58.747Z,1013.41
2018-09-08T05:44:58.623Z,1013.46
2018-09-08T05:45:58.629Z,1013.47
2018-09-08T05:46:58.705Z,1013.47
2018-09-08T05:47:58.650Z,1013.50
2018-09-08T05:48:58.671Z,1013.51
2018-09-08T05:49:58.630Z,1013.53
2018-09-08T05:50:58.638Z,1013.53
2018-09-08T05:51:58.629Z,1013.54
2018-09-08T05:52:58.652Z,1013.56
2018-09-08T05:53:58.665Z,1013.55
2018-09-08T05:54:58.644Z,1013.58
2018-09-08T05:55:58.697Z,1013.56
2018-09-08T05:56:58.782Z,1013.55
2018-09-08T05:57:58.694Z,1013.54
2018-09-08T05:58:58.657Z,1013.55
2018-09-08T05:59:58.651Z,1013.58
2018-09-08T06:00:58.683Z,1013.58
2018-09-08T06:01:58.659Z,1013.61
2018-09-08T06:02:58.684Z,1013.61
2018-09-08T06:03:58.658Z,1013.65
2018-09-08T06:04:58.737Z,1013.67
2018-09-08T06:05:58.670Z,1013.72
2018-09-08T06:06:58.674Z,1013.71
2018-09-08T06:07:58.677Z,1013.76
2018-09-08T06:08:58.689Z,1013.74
2018-09-08T06:09:58.672Z,1013.77
2018-09-08T06:10:58.692Z,1013.78
2018-09-08T06:11:58.687Z,1013.78
2018-09-08T06:12:58.688Z,1013.81
2018-09-08T06:13:58.697Z,1013.87
2018-09-08T06:14:58.692Z,1013.90
2018-09-08T06:15:58.721Z,1013.85
2018-09-08T06:16:58.707Z,1013.83
2018-09-08T06:17:58.706Z,1013.87
2018-09-08T06:18:58.714Z,1013.90
2018-09-08T06:19:58.707Z,1013.85
2018-09-08T06:20:58.693Z,1013.86
2018-09-08T06:21:58.696Z,1013.89
2018-09-08T06:22:58.700Z,1013.88
2018-09-08T06:23:58.723Z,1013.92
2018-09-08T06:24:58.710Z,1013.94
2018-09-08T06:25:58.717Z,1013.99
2018-09-08T06:26:58.731Z,1013.98
2018-09-08T06:27:58.716Z,1013.98
2018-09-08T06:28:58.714Z,1014.01
2018-09-08T06:29:58.768Z,1013.97
2018-09-08T06:30:58.742Z,1013.97
2018-09-08T06:31:58.752Z,1013.97
2018-09-08T06:32:58.781Z,1013.96
2018-09-08T06:33:58.744Z,1013.98
2018-09-08T06:34:58.807Z,1014.03
2018-09-08T06:35:58.731Z,1014.01
2018-09-08T06:36:58.776Z,1014.02
2018-09-08T06:37:58.799Z,1014.02
2018-09-08T06:38:58.769Z,1014.13
2018-09-08T06:39:58.762Z,1014.13
2018-09-08T06:40:58.770Z,1014.08
2018-09-08T06:41:58.765Z,1014.16
2018-09-08T06:42:58.760Z,1014.16
2018-09-08T06:43:58.807Z,1014.13
2018-09-08T06:44:58.870Z,1014.21
2018-09-08T06:45:58.797Z,1014.11
2018-09-08T06:46:58.789Z,1014.15
2018-09-08T06:47:58.779Z,1014.14
2018-09-08T06:48:58.777Z,1014.20
2018-09-08T06:49:58.785Z,1014.21
2018-09-08T06:50:59.358Z,1014.18
2018-09-08T06:51:58.799Z,1014.25
2018-09-08T06:52:58.808Z,1014.25
2018-09-08T06:53:58.821Z,1014.27
2018-09-08T06:54:58.826Z,1014.23
2018-09-08T06:55:58.801Z,1014.27
2018-09-08T06:56:58.814Z,1014.29
2018-09-08T06:57:58.859Z,1014.29
2018-09-08T06:58:58.837Z,1014.35
2018-09-08T06:59:58.844Z,1014.39
2018-09-08T07:00:58.826Z,1014.44
2018-09-08T07:01:58.838Z,1014.39
2018-09-08T07:02:59.358Z,1014.42
2018-09-08T07:03:58.875Z,1014.43
2018-09-08T07:04:58.860Z,1014.42
2018-09-08T07:05:58.890Z,1014.43
2018-09-08T07:06:58.885Z,1014.42
2018-09-08T07:07:58.894Z,1014.46
2018-09-08T07:08:58.890Z,1014.50
2018-09-08T07:09:58.882Z,1014.42
2018-09-08T07:10:58.899Z,1014.43
2018-09-08T07:11:58.911Z,1014.49
2018-09-08T07:12:58.891Z,1014.48
2018-09-08T07:13:58.895Z,1014.52
2018-09-08T07:14:58.936Z,1014.58
2018-09-08T07:15:59.375Z,1014.70
2018-09-08T07:16:58.903Z,1014.77
2018-09-08T07:17:58.916Z,1014.88
2018-09-08T07:18:58.936Z,1014.95
2018-09-08T07:19:58.925Z,1015.00
2018-09-08T07:20:58.965Z,1015.05
2018-09-08T07:21:58.942Z,1015.07
2018-09-08T07:22:58.973Z,1015.02
2018-09-08T07:23:58.982Z,1015.03
2018-09-08T07:24:58.987Z,1014.92
2018-09-08T07:25:58.960Z,1014.97
2018-09-08T07:26:59.026Z,1015.08
2018-09-08T07:27:59.045Z,1014.93
2018-09-08T07:28:59.076Z,1014.95
2018-09-08T07:29:58.985Z,1015.02
2018-09-08T07:30:59.020Z,1014.90
2018-09-08T07:31:59.025Z,1014.83
2018-09-08T07:32:59.009Z,1014.91
2018-09-08T07:33:59.035Z,1014.83
2018-09-08T07:34:59.031Z,1014.87
2018-09-08T07:35:59.086Z,1014.91
2018-09-08T07:36:59.109Z,1014.84
2018-09-08T07:37:59.042Z,1014.95
2018-09-08T07:38:59.881Z,1014.87
2018-09-08T07:39:59.885Z,1014.83
2018-09-08T07:40:59.100Z,1014.88
2018-09-08T07:41:59.102Z,1014.81
2018-09-08T07:42:59.133Z,1014.78
2018-09-08T07:43:59.108Z,1014.78
2018-09-08T07:44:59.106Z,1014.76
2018-09-08T07:45:59.192Z,1014.81
2018-09-08T07:46:59.136Z,1014.85
2018-09-08T07:47:59.115Z,1014.85
2018-09-08T07:48:59.121Z,1014.81
2018-09-08T07:49:59.127Z,1014.82
2018-09-08T07:50:59.895Z,1014.81
2018-09-08T07:51:59.141Z,1014.87
2018-09-08T07:52:59.147Z,1015.06
2018-09-08T07:53:59.167Z,1014.83
2018-09-08T07:54:59.165Z,1014.77
2018-09-08T07:55:59.154Z,1014.80
2018-09-08T07:56:59.231Z,1015.12
2018-09-08T07:57:59.179Z,1014.79
2018-09-08T07:58:59.175Z,1014.74
2018-09-08T07:59:59.184Z,1014.96
2018-09-08T08:00:59.185Z,1014.93
2018-09-08T08:01:59.189Z,1015.27
2018-09-08T08:02:59.193Z,1014.99
2018-09-08T08:03:59.201Z,1015.29
2018-09-08T08:04:59.898Z,1015.31
2018-09-08T08:05:59.245Z,1015.36
2018-09-08T08:06:59.229Z,1015.42
2018-09-08T08:07:59.250Z,1015.48
2018-09-08T08:08:59.308Z,1015.58
2018-09-08T08:09:59.237Z,1015.60
2018-09-08T08:10:59.257Z,1015.73
2018-09-08T08:11:59.260Z,1015.68
2018-09-08T08:12:59.286Z,1015.85
2018-09-08T08:13:59.290Z,1015.64
2018-09-08T08:14:59.292Z,1015.69
2018-09-08T08:15:59.275Z,1015.78
2018-09-08T08:16:59.330Z,1015.84
2018-09-08T08:17:59.336Z,1015.90
2018-09-08T08:18:59.319Z,1015.89
2018-09-08T08:19:59.332Z,1016.09
2018-09-08T08:20:59.329Z,1016.08
2018-09-08T08:21:59.380Z,1016.01
2018-09-08T08:22:59.324Z,1015.97
2018-09-08T08:23:59.342Z,1016.06
2018-09-08T08:24:59.408Z,1016.22
2018-09-08T08:25:59.363Z,1016.21
2018-09-08T08:26:59.384Z,1016.16
2018-09-08T08:27:59.391Z,1016.23
2018-09-08T08:28:59.400Z,1016.25
2018-09-08T08:29:59.908Z,1016.25
2018-09-08T08:30:59.498Z,1016.43
2018-09-08T08:31:59.407Z,1016.32
2018-09-08T08:32:59.427Z,1016.33
2018-09-08T08:33:59.463Z,1016.28
2018-09-08T08:34:59.462Z,1016.29
2018-09-08T08:35:59.464Z,1016.47
2018-09-08T08:36:59.487Z,1016.53
2018-09-08T08:37:59.550Z,1016.56
2018-09-08T08:38:59.491Z,1016.56
2018-09-08T08:40:00.421Z,1016.55
2018-09-08T08:40:59.510Z,1016.58
2018-09-08T08:41:59.537Z,1016.50
2018-09-08T08:42:59.526Z,1016.55
2018-09-08T08:43:59.526Z,1016.60
2018-09-08T08:44:59.627Z,1016.72
2018-09-08T08:45:59.596Z,1016.97
2018-09-08T08:46:59.564Z,1017.23
2018-09-08T08:47:59.593Z,1017.52
2018-09-08T08:48:59.602Z,1017.45
2018-09-08T08:49:59.604Z,1017.43
2018-09-08T08:50:59.634Z,1017.43
2018-09-08T08:51:59.664Z,1017.40
2018-09-08T08:52:59.666Z,1016.99
2018-09-08T08:53:59.647Z,1016.92
2018-09-08T08:55:00.434Z,1017.00
2018-09-08T08:55:59.681Z,1017.08
2018-09-08T08:56:59.668Z,1017.55
2018-09-08T08:57:59.683Z,1018.03
2018-09-08T08:58:59.688Z,1018.36
2018-09-08T08:59:59.710Z,1017.74
2018-09-08T09:00:59.716Z,1018.31
2018-09-08T09:01:59.744Z,1018.19
2018-09-08T09:02:59.783Z,1018.13
2018-09-08T09:03:59.788Z,1017.18
2018-09-08T09:04:59.755Z,1015.89
2018-09-08T09:05:59.804Z,1015.86
2018-09-08T09:06:59.795Z,1015.76
2018-09-08T09:07:59.793Z,1015.69
2018-09-08T09:08:59.850Z,1015.75
2018-09-08T09:09:59.840Z,1015.68
2018-09-08T09:10:59.948Z,1015.70
2018-09-08T09:11:59.822Z,1015.69
2018-09-08T09:12:59.948Z,1015.64
2018-09-08T09:13:59.853Z,1015.67
2018-09-08T09:14:59.872Z,1015.63
2018-09-08T09:15:59.879Z,1015.66
2018-09-08T09:16:59.953Z,1015.62
2018-09-08T09:17:59.963Z,1015.61
2018-09-08T09:19:00.406Z,1015.55
2018-09-08T09:19:59.912Z,1015.61
2018-09-08T09:21:00.342Z,1015.69
2018-09-08T09:21:59.969Z,1015.66
2018-09-08T09:23:00.072Z,1015.68
2018-09-08T09:24:00.042Z,1015.65
2018-09-08T09:25:00.041Z,1015.56
2018-09-08T09:25:59.988Z,1015.48
2018-09-08T09:26:59.994Z,1015.58
2018-09-08T09:28:00.962Z,1015.57
2018-09-08T09:29:00.048Z,1015.53
2018-09-08T09:30:00.036Z,1015.65
2018-09-08T09:31:00.028Z,1015.76
2018-09-08T09:32:00.072Z,1015.78
2018-09-08T09:33:00.076Z,1015.87
2018-09-08T09:34:00.060Z,1016.01
2018-09-08T09:35:00.083Z,1015.98
2018-09-08T09:36:00.119Z,1016.07
2018-09-08T09:37:00.122Z,1016.31
2018-09-08T09:38:00.105Z,1016.21
2018-09-08T09:39:00.121Z,1016.06
2018-09-08T09:40:00.141Z,1016.35
2018-09-08T09:41:00.143Z,1016.08
2018-09-08T09:42:00.178Z,1016.46
2018-09-08T09:43:00.264Z,1016.65
2018-09-08T09:44:00.175Z,1016.61
2018-09-08T09:45:00.238Z,1016.47
2018-09-08T09:46:00.207Z,1016.75
2018-09-08T09:47:00.201Z,1017.00
2018-09-08T09:48:00.271Z,1017.05
2018-09-08T09:49:00.251Z,1017.12
2018-09-08T09:50:00.277Z,1017.29
2018-09-08T09:51:00.266Z,1015.33
2018-09-08T09:52:00.256Z,1017.82
2018-09-08T09:53:00.353Z,1018.02
2018-09-08T09:54:00.271Z,1018.52
2018-09-08T09:55:00.277Z,1018.40
2018-09-08T09:56:00.287Z,1017.91
2018-09-08T09:57:00.289Z,1018.45
2018-09-08T09:58:00.303Z,1020.37
2018-09-08T09:59:00.354Z,1019.56
2018-09-08T10:00:00.333Z,1020.59
2018-09-08T10:01:00.408Z,1019.81
2018-09-08T10:02:00.356Z,1015.36
2018-09-08T10:03:00.368Z,1019.06
2018-09-08T10:04:00.365Z,1017.85
2018-09-08T10:05:00.388Z,1016.87
2018-09-08T10:06:00.431Z,1016.70
2018-09-08T10:07:00.408Z,1016.53
2018-09-08T10:08:00.421Z,1016.43
2018-09-08T10:09:00.416Z,1016.09
2018-09-08T10:10:00.476Z,1015.75
2018-09-08T10:11:00.450Z,1015.32
2018-09-08T10:12:00.497Z,1015.20
2018-09-08T10:13:00.514Z,1015.23
2018-09-08T10:14:00.498Z,1015.26
2018-09-08T10:15:00.488Z,1015.27
2018-09-08T10:16:00.624Z,1015.17
2018-09-08T10:17:00.529Z,1015.16
2018-09-08T10:18:00.531Z,1015.33
2018-09-08T10:19:00.532Z,1015.25
2018-09-08T10:20:00.548Z,1015.18
2018-09-08T10:21:00.543Z,1015.22
2018-09-08T10:22:00.544Z,1015.28
2018-09-08T10:23:00.609Z,1015.15
2018-09-08T10:24:05.152Z,1015.35
2018-09-08T10:25:00.572Z,1015.41
2018-09-08T10:26:00.562Z,1015.34
2018-09-08T10:27:00.620Z,1015.33
2018-09-08T10:28:00.586Z,1015.35
2018-09-08T10:29:00.603Z,1015.42
2018-09-08T10:30:00.947Z,1015.57
2018-09-08T10:31:00.620Z,1015.37
2018-09-08T10:32:00.670Z,1015.42
2018-09-08T10:33:00.643Z,1015.24
2018-09-08T10:34:00.715Z,1015.26
2018-09-08T10:35:00.668Z,1015.30
2018-09-08T10:36:00.714Z,1015.25
2018-09-08T10:37:00.692Z,1015.38
2018-09-08T10:38:00.693Z,1015.37
2018-09-08T10:39:00.681Z,1015.40
2018-09-08T10:40:00.708Z,1015.23
2018-09-08T10:41:00.692Z,1015.33
2018-09-08T10:42:00.714Z,1015.28
2018-09-08T10:43:00.718Z,1015.18
2018-09-08T10:44:01.501Z,1015.10
2018-09-08T10:45:00.719Z,1015.08
2018-09-08T10:46:00.762Z,1014.99
2018-09-08T10:47:00.816Z,1015.02
2018-09-08T10:48:00.771Z,1014.95
2018-09-08T10:49:00.762Z,1014.97
2018-09-08T10:50:00.779Z,1015.03
2018-09-08T10:51:00.799Z,1014.93
2018-09-08T10:52:00.813Z,1014.88
2018-09-08T10:53:00.806Z,1014.82
2018-09-08T10:54:00.848Z,1014.80
2018-09-08T10:55:00.830Z,1014.85
2018-09-08T10:56:00.839Z,1014.89
2018-09-08T10:57:00.835Z,1014.87
2018-09-08T10:58:00.832Z,1014.96
2018-09-08T10:59:00.831Z,1014.85
2018-09-08T11:00:00.837Z,1014.79
2018-09-08T11:01:00.837Z,1014.82
2018-09-08T11:02:01.035Z,1014.81
2018-09-08T11:03:00.867Z,1014.89
2018-09-08T11:04:00.870Z,1014.89
2018-09-08T11:05:00.873Z,1014.89
2018-09-08T11:06:00.868Z,1014.87
2018-09-08T11:07:00.889Z,1014.91
2018-09-08T11:08:00.905Z,1014.90
2018-09-08T11:09:00.898Z,1014.91
2018-09-08T11:10:01.515Z,1014.88
2018-09-08T11:11:00.923Z,1014.80
2018-09-08T11:12:00.920Z,1014.85
2018-09-08T11:13:00.910Z,1014.88
2018-09-08T11:14:00.910Z,1014.92
2018-09-08T11:15:00.936Z,1014.87
2018-09-08T11:16:00.949Z,1014.89
2018-09-08T11:17:01.017Z,1014.91
2018-09-08T11:18:00.990Z,1014.92
2018-09-08T11:19:00.935Z,1014.83
2018-09-08T11:20:00.945Z,1014.89
2018-09-08T11:21:00.985Z,1014.80
2018-09-08T11:22:00.961Z,1014.87
2018-09-08T11:23:01.007Z,1014.92
2018-09-08T11:24:00.994Z,1014.88
2018-09-08T11:25:00.987Z,1014.83
2018-09-08T11:26:00.985Z,1014.85
2018-09-08T11:27:01.017Z,1014.96
2018-09-08T11:28:01.009Z,1014.87
2018-09-08T11:29:01.047Z,1014.80
2018-09-08T11:30:01.048Z,1014.81
2018-09-08T11:31:01.010Z,1014.80
2018-09-08T11:32:01.068Z,1014.79
2018-09-08T11:33:01.049Z,1014.73
2018-09-08T11:34:01.052Z,1014.78
2018-09-08T11:35:01.030Z,1014.87
2018-09-08T11:36:01.035Z,1014.76
2018-09-08T11:37:01.034Z,1014.79
2018-09-08T11:38:01.140Z,1014.81
2018-09-08T11:39:01.065Z,1014.88
2018-09-08T11:40:01.054Z,1014.90
2018-09-08T11:41:01.056Z,1014.82
2018-09-08T11:42:01.077Z,1014.85
2018-09-08T11:43:01.064Z,1014.80
2018-09-08T11:44:01.078Z,1014.82
2018-09-08T11:45:01.119Z,1014.77
2018-09-08T11:46:01.090Z,1014.78
2018-09-08T11:47:01.122Z,1014.73
2018-09-08T11:48:01.139Z,1014.73
2018-09-08T11:49:01.097Z,1014.71
2018-09-08T11:50:01.099Z,1014.66
2018-09-08T11:51:01.112Z,1014.63
2018-09-08T11:52:01.120Z,1014.74
2018-09-08T11:53:01.142Z,1014.62
2018-09-08T11:54:01.124Z,1014.72
2018-09-08T11:55:01.222Z,1014.73
2018-09-08T11:56:01.152Z,1014.85
2018-09-08T11:57:01.271Z,1014.86
2018-09-08T11:58:01.145Z,1014.73
2018-09-08T11:59:01.602Z,1014.73
2018-09-08T12:00:01.145Z,1014.72
2018-09-08T12:01:01.213Z,1014.76
2018-09-08T12:02:01.202Z,1014.69
2018-09-08T12:03:01.239Z,1014.67
2018-09-08T12:04:01.160Z,1014.69
2018-09-08T12:05:01.198Z,1014.72
2018-09-08T12:06:01.167Z,1014.76